»·PEaware :: N503AM KVGT-KIFP

N503AM :: KVGT-KIFP

FLIGHT INFORMATION

Flight Status: Arrived
Operator: Privately registered:
United States
More flights under this callsign
Pilot: Gary H. (18965)
Aircraft: CESSNA 172 SKYHAWK
(C172)
More flights by this aircraft type
Origin: KVGT North Las Vegas
United States
Destination: KIFP Laughlin/Bullhead Intl
United States
More flights between these airports :: More routes between these airports
Route: NOTWN5 LAS BLD V237 CUTAD
File this flight plan on PilotEdge
Remarks:
Altitude:
(Current/Filed)
9,000ft
Speed:
(Current/Filed)
110kts
Departed: 08-Mar-22 02:23 PM
Arrived: 08-Mar-22 03:18 PM
Distance/Time
Traveled:
71nm/0:55
Distance/Time
To Go:
Arrived

Flight Plot

Page will automatically refresh every two minutes.

Flight plan parsing failed; only flown route is shown


Map Options




Map Legend


Flown Route
Filed Route
Departure Airport
Arrival Airport
Navaid (VOR, NDB)
Fix

Horizontal Profiles

Position Reports

Time Latitude Longitude Heading Altitude Ground
Speed
08-Mar-22 14:08 36.209512 -115.186425 180 2166ft 0kts
08-Mar-22 14:09 36.209512 -115.186425 180 2166ft 0kts
08-Mar-22 14:10 36.209512 -115.186425 180 2166ft 0kts
08-Mar-22 14:11 36.209512 -115.186425 180 2166ft 0kts
08-Mar-22 14:12 36.208117 -115.187260 206 2164ft 16kts
08-Mar-22 14:13 36.207418 -115.187769 221 2163ft 14kts
08-Mar-22 14:14 36.209617 -115.191384 315 2177ft 15kts
08-Mar-22 14:15 36.210294 -115.192534 234 2181ft 0kts
08-Mar-22 14:16 36.210294 -115.192534 234 2181ft 0kts
08-Mar-22 14:17 36.210294 -115.192534 234 2181ft 0kts
08-Mar-22 14:18 36.210294 -115.192534 234 2181ft 0kts
08-Mar-22 14:19 36.210294 -115.192534 234 2181ft 0kts
08-Mar-22 14:20 36.210294 -115.192534 234 2181ft 0kts
08-Mar-22 14:21 36.210293 -115.192535 234 2181ft 0kts
08-Mar-22 14:22 36.208801 -115.191832 134 2176ft 45kts
08-Mar-22 14:23 36.193445 -115.176155 170 2773ft 75kts
08-Mar-22 14:24 36.185273 -115.197951 278 3460ft 93kts
08-Mar-22 14:25 36.183896 -115.230724 261 4109ft 95kts
08-Mar-22 14:26 36.196866 -115.256500 322 4765ft 95kts
08-Mar-22 14:27 36.219656 -115.278415 322 5049ft 116kts
08-Mar-22 14:28 36.245388 -115.303483 322 5045ft 118kts
08-Mar-22 14:29 36.265164 -115.299428 85 5653ft 74kts
08-Mar-22 14:30 36.247177 -115.283027 150 6131ft 91kts
08-Mar-22 14:31 36.223259 -115.271677 150 6729ft 93kts
08-Mar-22 14:32 36.198268 -115.260004 150 7229ft 99kts
08-Mar-22 14:33 36.176205 -115.240796 135 7718ft 98kts
08-Mar-22 14:34 36.153379 -115.221428 136 8175ft 101kts
08-Mar-22 14:35 36.129717 -115.201516 136 8596ft 104kts
08-Mar-22 14:36 36.105300 -115.181031 137 8992ft 108kts
08-Mar-22 14:37 36.080460 -115.158673 109 9062ft 106kts
08-Mar-22 14:38 36.070033 -115.124206 101 9051ft 107kts
08-Mar-22 14:39 36.060918 -115.092542 101 9048ft 107kts
08-Mar-22 14:40 36.051015 -115.057740 101 9044ft 107kts
08-Mar-22 14:41 36.041118 -115.022827 101 9040ft 107kts
08-Mar-22 14:42 36.031189 -114.987778 101 9036ft 108kts
08-Mar-22 14:43 36.021198 -114.952578 101 9030ft 108kts
08-Mar-22 14:44 36.011230 -114.917529 101 9029ft 108kts
08-Mar-22 14:45 36.001272 -114.882508 101 9028ft 107kts
08-Mar-22 14:46 35.980006 -114.858891 158 9027ft 117kts
08-Mar-22 14:47 35.948442 -114.848392 159 9028ft 118kts
08-Mar-22 14:48 35.916702 -114.838097 159 9028ft 118kts
08-Mar-22 14:49 35.884787 -114.827824 159 9025ft 118kts
08-Mar-22 14:50 35.853219 -114.817701 159 9024ft 117kts
08-Mar-22 14:51 35.821706 -114.807597 159 9025ft 117kts
08-Mar-22 14:52 35.790070 -114.797482 159 9026ft 117kts
08-Mar-22 14:53 35.758526 -114.787385 159 9026ft 117kts
08-Mar-22 14:54 35.726820 -114.777242 159 9026ft 117kts
08-Mar-22 14:55 35.695288 -114.767178 159 9025ft 117kts
08-Mar-22 14:56 35.663696 -114.757100 159 9025ft 117kts
08-Mar-22 14:57 35.631988 -114.746984 159 9026ft 118kts
08-Mar-22 14:58 35.599960 -114.736809 160 9026ft 119kts
08-Mar-22 14:59 35.567851 -114.726614 160 9026ft 120kts
08-Mar-22 15:00 35.535434 -114.716304 161 9026ft 120kts
08-Mar-22 15:01 35.503148 -114.706053 161 9045ft 120kts
08-Mar-22 15:02 35.471140 -114.693773 156 9045ft 120kts
08-Mar-22 15:03 35.439464 -114.680235 156 9045ft 120kts
08-Mar-22 15:04 35.407612 -114.666599 156 9005ft 123kts
08-Mar-22 15:05 35.375432 -114.656848 167 8886ft 114kts
08-Mar-22 15:06 35.343092 -114.649428 166 8166ft 118kts
08-Mar-22 15:07 35.311311 -114.641910 166 7998ft 113kts
08-Mar-22 15:08 35.280892 -114.634890 166 7999ft 110kts
08-Mar-22 15:09 35.251285 -114.627526 166 7329ft 107kts
08-Mar-22 15:10 35.222046 -114.619792 166 6444ft 108kts
08-Mar-22 15:11 35.192744 -114.611744 166 5552ft 108kts
08-Mar-22 15:12 35.166008 -114.598302 129 4667ft 106kts
08-Mar-22 15:13 35.139313 -114.586000 170 3772ft 106kts
08-Mar-22 15:14 35.112787 -114.574829 109 2885ft 101kts
08-Mar-22 15:15 35.122655 -114.555227 350 2036ft 71kts
08-Mar-22 15:16 35.140461 -114.558097 348 1132ft 63kts
08-Mar-22 15:17 35.151334 -114.558061 76 704ft 0kts
08-Mar-22 15:18 35.151334 -114.558060 75 704ft 0kts
08-Mar-22 15:19 35.153147 -114.557853 355 704ft 15kts

Navigation Log

Ident Type
Flight plan parsing failed, navigation log unavailable